sensor_id;sensor_type;location;lat;lon;timestamp;P1;durP1;ratioP1;P2;durP2;ratioP2
15476;SDS011;7840;42.702;23.296;2022-12-11T00:01:29;20.93;;;16.20;;
15476;SDS011;7840;42.702;23.296;2022-12-11T00:03:57;21.77;;;16.40;;
15476;SDS011;7840;42.702;23.296;2022-12-11T00:06:24;22.57;;;16.27;;
15476;SDS011;7840;42.702;23.296;2022-12-11T00:08:53;18.50;;;15.70;;
15476;SDS011;7840;42.702;23.296;2022-12-11T00:11:21;32.43;;;20.73;;
15476;SDS011;7840;42.702;23.296;2022-12-11T00:13:54;22.80;;;18.67;;
15476;SDS011;7840;42.702;23.296;2022-12-11T00:16:22;29.20;;;22.20;;
15476;SDS011;7840;42.702;23.296;2022-12-11T00:18:50;35.23;;;26.70;;
15476;SDS011;7840;42.702;23.296;2022-12-11T00:21:21;35.97;;;27.40;;
15476;SDS011;7840;42.702;23.296;2022-12-11T00:23:51;35.87;;;28.37;;
15476;SDS011;7840;42.702;23.296;2022-12-11T00:26:19;31.53;;;24.47;;
15476;SDS011;7840;42.702;23.296;2022-12-11T00:28:47;27.33;;;20.27;;
15476;SDS011;7840;42.702;23.296;2022-12-11T00:31:20;20.87;;;18.03;;
15476;SDS011;7840;42.702;23.296;2022-12-11T00:33:49;21.33;;;16.17;;
15476;SDS011;7840;42.702;23.296;2022-12-11T00:36:18;18.53;;;15.10;;
15476;SDS011;7840;42.702;23.296;2022-12-11T00:38:47;18.53;;;13.97;;
15476;SDS011;7840;42.702;23.296;2022-12-11T00:41:15;20.30;;;14.13;;
15476;SDS011;7840;42.702;23.296;2022-12-11T00:43:43;16.07;;;13.23;;
15476;SDS011;7840;42.702;23.296;2022-12-11T00:46:12;18.27;;;13.27;;
15476;SDS011;7840;42.702;23.296;2022-12-11T00:48:41;18.07;;;13.93;;
15476;SDS011;7840;42.702;23.296;2022-12-11T00:51:10;18.53;;;15.00;;
15476;SDS011;7840;42.702;23.296;2022-12-11T00:53:38;22.83;;;15.43;;
15476;SDS011;7840;42.702;23.296;2022-12-11T00:56:09;21.43;;;16.40;;
15476;SDS011;7840;42.702;23.296;2022-12-11T00:58:40;22.97;;;17.20;;
15476;SDS011;7840;42.702;23.296;2022-12-11T01:01:08;23.83;;;16.30;;
15476;SDS011;7840;42.702;23.296;2022-12-11T01:03:39;19.00;;;13.97;;
15476;SDS011;7840;42.702;23.296;2022-12-11T01:06:11;19.13;;;14.30;;
15476;SDS011;7840;42.702;23.296;2022-12-11T01:08:41;18.33;;;14.70;;
15476;SDS011;7840;42.702;23.296;2022-12-11T01:11:10;18.20;;;13.43;;
15476;SDS011;7840;42.702;23.296;2022-12-11T01:13:38;20.60;;;14.73;;
15476;SDS011;7840;42.702;23.296;2022-12-11T01:16:07;21.13;;;14.35;;
15476;SDS011;7840;42.702;23.296;2022-12-11T01:18:37;18.15;;;14.32;;
15476;SDS011;7840;42.702;23.296;2022-12-11T01:21:07;19.50;;;15.13;;
15476;SDS011;7840;42.702;23.296;2022-12-11T01:23:36;17.53;;;13.50;;
15476;SDS011;7840;42.702;23.296;2022-12-11T01:26:05;17.80;;;13.87;;
15476;SDS011;7840;42.702;23.296;2022-12-11T01:28:34;15.87;;;13.23;;
15476;SDS011;7840;42.702;23.296;2022-12-11T01:31:06;17.07;;;13.57;;
15476;SDS011;7840;42.702;23.296;2022-12-11T01:33:34;22.47;;;14.17;;
15476;SDS011;7840;42.702;23.296;2022-12-11T01:36:06;18.30;;;14.50;;
15476;SDS011;7840;42.702;23.296;2022-12-11T01:38:35;20.20;;;13.60;;
15476;SDS011;7840;42.702;23.296;2022-12-11T01:41:03;14.87;;;12.43;;
15476;SDS011;7840;42.702;23.296;2022-12-11T01:43:30;17.87;;;13.33;;
15476;SDS011;7840;42.702;23.296;2022-12-11T01:45:58;16.60;;;13.97;;
15476;SDS011;7840;42.702;23.296;2022-12-11T01:48:27;19.47;;;12.63;;
15476;SDS011;7840;42.702;23.296;2022-12-11T01:50:57;15.17;;;12.30;;
15476;SDS011;7840;42.702;23.296;2022-12-11T01:53:32;13.50;;;9.33;;
15476;SDS011;7840;42.702;23.296;2022-12-11T01:56:03;11.63;;;7.00;;
15476;SDS011;7840;42.702;23.296;2022-12-11T01:58:32;11.83;;;10.17;;
15476;SDS011;7840;42.702;23.296;2022-12-11T02:01:09;5.67;;;4.97;;
15476;SDS011;7840;42.702;23.296;2022-12-11T02:03:42;2.63;;;2.40;;
15476;SDS011;7840;42.702;23.296;2022-12-11T02:08:58;9.27;;;7.05;;
15476;SDS011;7840;42.702;23.296;2022-12-11T02:11:28;4.18;;;3.45;;
15476;SDS011;7840;42.702;23.296;2022-12-11T02:14:04;3.30;;;3.00;;
15476;SDS011;7840;42.702;23.296;2022-12-11T02:16:40;5.32;;;3.28;;
15476;SDS011;7840;42.702;23.296;2022-12-11T02:19:17;4.25;;;3.00;;
15476;SDS011;7840;42.702;23.296;2022-12-11T02:21:55;5.57;;;3.10;;
15476;SDS011;7840;42.702;23.296;2022-12-11T02:24:37;4.10;;;3.25;;
15476;SDS011;7840;42.702;23.296;2022-12-11T02:27:28;5.15;;;3.47;;
15476;SDS011;7840;42.702;23.296;2022-12-11T02:30:03;5.03;;;3.60;;
15476;SDS011;7840;42.702;23.296;2022-12-11T02:32:36;4.22;;;2.90;;
15476;SDS011;7840;42.702;23.296;2022-12-11T02:35:08;5.03;;;3.00;;
15476;SDS011;7840;42.702;23.296;2022-12-11T02:37:42;3.03;;;2.58;;
15476;SDS011;7840;42.702;23.296;2022-12-11T02:40:13;7.30;;;3.03;;
15476;SDS011;7840;42.702;23.296;2022-12-11T02:42:56;4.38;;;2.67;;
15476;SDS011;7840;42.702;23.296;2022-12-11T02:45:28;5.68;;;2.65;;
15476;SDS011;7840;42.702;23.296;2022-12-11T02:48:00;4.80;;;2.58;;
15476;SDS011;7840;42.702;23.296;2022-12-11T02:50:32;3.58;;;3.10;;
15476;SDS011;7840;42.702;23.296;2022-12-11T02:53:09;2.83;;;2.50;;
15476;SDS011;7840;42.702;23.296;2022-12-11T02:55:39;5.63;;;2.45;;
15476;SDS011;7840;42.702;23.296;2022-12-11T02:58:08;3.20;;;2.70;;
15476;SDS011;7840;42.702;23.296;2022-12-11T03:00:45;3.13;;;2.45;;
15476;SDS011;7840;42.702;23.296;2022-12-11T03:03:13;4.35;;;2.22;;
15476;SDS011;7840;42.702;23.296;2022-12-11T03:05:41;0.90;;;0.90;;
15476;SDS011;7840;42.702;23.296;2022-12-11T03:08:10;2.00;;;1.40;;
15476;SDS011;7840;42.702;23.296;2022-12-11T03:10:42;3.53;;;2.55;;
15476;SDS011;7840;42.702;23.296;2022-12-11T03:13:10;2.55;;;1.90;;
15476;SDS011;7840;42.702;23.296;2022-12-11T03:15:40;1.95;;;1.85;;
15476;SDS011;7840;42.702;23.296;2022-12-11T03:18:20;3.05;;;1.40;;
15476;SDS011;7840;42.702;23.296;2022-12-11T03:20:57;5.88;;;2.13;;
15476;SDS011;7840;42.702;23.296;2022-12-11T03:23:32;2.92;;;1.70;;
15476;SDS011;7840;42.702;23.296;2022-12-11T03:26:05;4.50;;;2.17;;
15476;SDS011;7840;42.702;23.296;2022-12-11T03:28:38;2.15;;;1.45;;
15476;SDS011;7840;42.702;23.296;2022-12-11T03:31:15;2.42;;;1.70;;
15476;SDS011;7840;42.702;23.296;2022-12-11T03:33:49;4.20;;;2.60;;
15476;SDS011;7840;42.702;23.296;2022-12-11T03:36:19;4.25;;;3.35;;
15476;SDS011;7840;42.702;23.296;2022-12-11T03:38:51;2.55;;;1.40;;
15476;SDS011;7840;42.702;23.296;2022-12-11T03:41:23;1.73;;;1.35;;
15476;SDS011;7840;42.702;23.296;2022-12-11T03:43:55;2.95;;;2.00;;
15476;SDS011;7840;42.702;23.296;2022-12-11T03:46:30;2.15;;;1.30;;
15476;SDS011;7840;42.702;23.296;2022-12-11T03:49:04;3.47;;;1.73;;
15476;SDS011;7840;42.702;23.296;2022-12-11T03:51:36;1.42;;;1.10;;
15476;SDS011;7840;42.702;23.296;2022-12-11T03:54:06;2.45;;;1.17;;
15476;SDS011;7840;42.702;23.296;2022-12-11T03:56:35;1.15;;;0.98;;
15476;SDS011;7840;42.702;23.296;2022-12-11T03:59:06;3.67;;;1.30;;
15476;SDS011;7840;42.702;23.296;2022-12-11T04:01:35;1.20;;;1.10;;
15476;SDS011;7840;42.702;23.296;2022-12-11T04:04:02;1.42;;;1.13;;
15476;SDS011;7840;42.702;23.296;2022-12-11T04:06:30;1.15;;;0.95;;
15476;SDS011;7840;42.702;23.296;2022-12-11T04:08:58;3.88;;;1.20;;
15476;SDS011;7840;42.702;23.296;2022-12-11T04:11:25;1.80;;;1.27;;
15476;SDS011;7840;42.702;23.296;2022-12-11T04:14:04;2.75;;;1.10;;
15476;SDS011;7840;42.702;23.296;2022-12-11T04:16:52;3.10;;;1.30;;
15476;SDS011;7840;42.702;23.296;2022-12-11T04:19:20;3.95;;;1.30;;
15476;SDS011;7840;42.702;23.296;2022-12-11T04:22:06;1.80;;;1.20;;
15476;SDS011;7840;42.702;23.296;2022-12-11T04:24:52;1.42;;;1.20;;
15476;SDS011;7840;42.702;23.296;2022-12-11T04:27:19;2.08;;;1.10;;
15476;SDS011;7840;42.702;23.296;2022-12-11T04:30:05;3.63;;;1.10;;
15476;SDS011;7840;42.702;23.296;2022-12-11T04:32:36;2.25;;;1.20;;
15476;SDS011;7840;42.702;23.296;2022-12-11T04:35:05;3.90;;;1.50;;
15476;SDS011;7840;42.702;23.296;2022-12-11T04:37:33;2.72;;;1.30;;
15476;SDS011;7840;42.702;23.296;2022-12-11T04:40:01;5.20;;;1.80;;
15476;SDS011;7840;42.702;23.296;2022-12-11T04:42:29;4.07;;;1.35;;
15476;SDS011;7840;42.702;23.296;2022-12-11T04:44:57;3.90;;;1.45;;
15476;SDS011;7840;42.702;23.296;2022-12-11T04:47:24;1.15;;;1.02;;
15476;SDS011;7840;42.702;23.296;2022-12-11T04:49:54;0.95;;;0.93;;
15476;SDS011;7840;42.702;23.296;2022-12-11T04:52:22;3.42;;;0.80;;
15476;SDS011;7840;42.702;23.296;2022-12-11T04:55:00;1.05;;;0.55;;
15476;SDS011;7840;42.702;23.296;2022-12-11T04:57:29;1.17;;;0.90;;
15476;SDS011;7840;42.702;23.296;2022-12-11T04:59:57;1.10;;;0.70;;
15476;SDS011;7840;42.702;23.296;2022-12-11T05:02:28;1.10;;;0.80;;
15476;SDS011;7840;42.702;23.296;2022-12-11T05:05:01;5.05;;;1.20;;
15476;SDS011;7840;42.702;23.296;2022-12-11T05:07:31;1.77;;;0.90;;
15476;SDS011;7840;42.702;23.296;2022-12-11T05:10:12;2.45;;;0.88;;
15476;SDS011;7840;42.702;23.296;2022-12-11T05:12:41;1.17;;;0.82;;
15476;SDS011;7840;42.702;23.296;2022-12-11T05:15:09;0.88;;;0.88;;
15476;SDS011;7840;42.702;23.296;2022-12-11T05:17:37;1.80;;;0.90;;
15476;SDS011;7840;42.702;23.296;2022-12-11T05:20:06;4.88;;;1.10;;
15476;SDS011;7840;42.702;23.296;2022-12-11T05:22:35;4.88;;;1.58;;
15476;SDS011;7840;42.702;23.296;2022-12-11T05:25:03;1.20;;;1.00;;
15476;SDS011;7840;42.702;23.296;2022-12-11T05:27:31;4.90;;;1.02;;
15476;SDS011;7840;42.702;23.296;2022-12-11T05:29:59;3.63;;;1.25;;
15476;SDS011;7840;42.702;23.296;2022-12-11T05:32:27;2.03;;;1.20;;
15476;SDS011;7840;42.702;23.296;2022-12-11T05:34:55;1.88;;;1.13;;
15476;SDS011;7840;42.702;23.296;2022-12-11T05:37:24;1.20;;;1.10;;
15476;SDS011;7840;42.702;23.296;2022-12-11T05:39:51;4.10;;;1.05;;
15476;SDS011;7840;42.702;23.296;2022-12-11T05:42:21;1.92;;;1.10;;
15476;SDS011;7840;42.702;23.296;2022-12-11T05:44:51;1.88;;;1.08;;
15476;SDS011;7840;42.702;23.296;2022-12-11T05:47:18;3.47;;;1.40;;
15476;SDS011;7840;42.702;23.296;2022-12-11T05:49:49;2.95;;;1.45;;
15476;SDS011;7840;42.702;23.296;2022-12-11T05:52:20;4.32;;;1.50;;
15476;SDS011;7840;42.702;23.296;2022-12-11T05:54:52;7.07;;;1.95;;
15476;SDS011;7840;42.702;23.296;2022-12-11T05:57:20;2.05;;;1.33;;
15476;SDS011;7840;42.702;23.296;2022-12-11T05:59:47;1.88;;;1.15;;
15476;SDS011;7840;42.702;23.296;2022-12-11T06:02:15;2.00;;;1.00;;
15476;SDS011;7840;42.702;23.296;2022-12-11T06:04:43;1.45;;;1.08;;
15476;SDS011;7840;42.702;23.296;2022-12-11T06:07:10;4.93;;;2.25;;
15476;SDS011;7840;42.702;23.296;2022-12-11T06:09:39;5.55;;;1.95;;
15476;SDS011;7840;42.702;23.296;2022-12-11T06:12:09;5.78;;;1.80;;
15476;SDS011;7840;42.702;23.296;2022-12-11T06:14:36;5.63;;;1.92;;
15476;SDS011;7840;42.702;23.296;2022-12-11T06:19:47;3.35;;;2.08;;
15476;SDS011;7840;42.702;23.296;2022-12-11T06:22:15;3.63;;;1.60;;
15476;SDS011;7840;42.702;23.296;2022-12-11T06:24:42;4.47;;;1.92;;
15476;SDS011;7840;42.702;23.296;2022-12-11T06:27:11;3.03;;;1.77;;
15476;SDS011;7840;42.702;23.296;2022-12-11T06:29:39;4.63;;;2.47;;
15476;SDS011;7840;42.702;23.296;2022-12-11T06:32:06;3.20;;;1.25;;
15476;SDS011;7840;42.702;23.296;2022-12-11T06:34:34;3.53;;;1.50;;
15476;SDS011;7840;42.702;23.296;2022-12-11T06:37:02;3.67;;;1.77;;
15476;SDS011;7840;42.702;23.296;2022-12-11T06:39:29;4.00;;;1.08;;
15476;SDS011;7840;42.702;23.296;2022-12-11T06:41:57;4.50;;;1.75;;
15476;SDS011;7840;42.702;23.296;2022-12-11T06:44:26;4.57;;;1.80;;
15476;SDS011;7840;42.702;23.296;2022-12-11T06:46:53;4.38;;;1.65;;
15476;SDS011;7840;42.702;23.296;2022-12-11T06:49:21;2.20;;;1.20;;
15476;SDS011;7840;42.702;23.296;2022-12-11T06:51:48;2.85;;;1.60;;
15476;SDS011;7840;42.702;23.296;2022-12-11T06:54:16;3.20;;;1.00;;
15476;SDS011;7840;42.702;23.296;2022-12-11T06:56:43;1.83;;;1.00;;
15476;SDS011;7840;42.702;23.296;2022-12-11T06:59:11;2.15;;;0.90;;
15476;SDS011;7840;42.702;23.296;2022-12-11T07:01:40;3.30;;;1.60;;
15476;SDS011;7840;42.702;23.296;2022-12-11T07:04:08;1.58;;;1.10;;
15476;SDS011;7840;42.702;23.296;2022-12-11T07:06:35;2.60;;;1.35;;
15476;SDS011;7840;42.702;23.296;2022-12-11T07:09:03;3.40;;;1.50;;
15476;SDS011;7840;42.702;23.296;2022-12-11T07:11:31;2.38;;;1.20;;
15476;SDS011;7840;42.702;23.296;2022-12-11T07:13:59;2.33;;;1.10;;
15476;SDS011;7840;42.702;23.296;2022-12-11T07:16:27;2.45;;;1.23;;
15476;SDS011;7840;42.702;23.296;2022-12-11T07:18:56;3.22;;;1.35;;
15476;SDS011;7840;42.702;23.296;2022-12-11T07:21:27;2.67;;;1.20;;
15476;SDS011;7840;42.702;23.296;2022-12-11T07:23:56;1.80;;;1.30;;
15476;SDS011;7840;42.702;23.296;2022-12-11T07:26:24;3.70;;;1.85;;
15476;SDS011;7840;42.702;23.296;2022-12-11T07:28:52;3.22;;;1.92;;
15476;SDS011;7840;42.702;23.296;2022-12-11T07:31:22;5.75;;;2.22;;
15476;SDS011;7840;42.702;23.296;2022-12-11T07:33:52;3.17;;;1.50;;
15476;SDS011;7840;42.702;23.296;2022-12-11T07:36:22;3.97;;;2.03;;
15476;SDS011;7840;42.702;23.296;2022-12-11T07:38:50;5.68;;;1.90;;
15476;SDS011;7840;42.702;23.296;2022-12-11T07:41:21;3.50;;;1.83;;
15476;SDS011;7840;42.702;23.296;2022-12-11T07:43:49;3.60;;;1.80;;
15476;SDS011;7840;42.702;23.296;2022-12-11T07:46:20;5.57;;;2.25;;
15476;SDS011;7840;42.702;23.296;2022-12-11T07:48:48;4.15;;;2.42;;
15476;SDS011;7840;42.702;23.296;2022-12-11T07:51:17;2.53;;;1.48;;
15476;SDS011;7840;42.702;23.296;2022-12-11T07:53:48;3.38;;;1.60;;
15476;SDS011;7840;42.702;23.296;2022-12-11T07:56:16;2.83;;;1.40;;
15476;SDS011;7840;42.702;23.296;2022-12-11T07:58:45;3.30;;;2.00;;
15476;SDS011;7840;42.702;23.296;2022-12-11T08:01:14;3.08;;;1.38;;
15476;SDS011;7840;42.702;23.296;2022-12-11T08:03:43;1.88;;;1.23;;
15476;SDS011;7840;42.702;23.296;2022-12-11T08:06:11;2.88;;;1.33;;
15476;SDS011;7840;42.702;23.296;2022-12-11T08:08:39;2.20;;;1.73;;
15476;SDS011;7840;42.702;23.296;2022-12-11T08:11:10;3.10;;;1.30;;
15476;SDS011;7840;42.702;23.296;2022-12-11T08:13:40;3.33;;;1.73;;
15476;SDS011;7840;42.702;23.296;2022-12-11T08:16:22;3.83;;;1.80;;
15476;SDS011;7840;42.702;23.296;2022-12-11T08:18:55;1.10;;;0.93;;
15476;SDS011;7840;42.702;23.296;2022-12-11T08:21:31;2.08;;;1.60;;
15476;SDS011;7840;42.702;23.296;2022-12-11T08:24:01;2.90;;;1.60;;
15476;SDS011;7840;42.702;23.296;2022-12-11T08:26:31;4.03;;;2.65;;
15476;SDS011;7840;42.702;23.296;2022-12-11T08:28:59;4.47;;;1.75;;
15476;SDS011;7840;42.702;23.296;2022-12-11T08:31:27;1.50;;;0.85;;
15476;SDS011;7840;42.702;23.296;2022-12-11T08:33:55;1.67;;;0.90;;
15476;SDS011;7840;42.702;23.296;2022-12-11T08:36:23;2.20;;;1.10;;
15476;SDS011;7840;42.702;23.296;2022-12-11T08:38:51;1.70;;;1.13;;
15476;SDS011;7840;42.702;23.296;2022-12-11T08:41:20;2.33;;;1.40;;
15476;SDS011;7840;42.702;23.296;2022-12-11T08:43:51;2.10;;;1.45;;
15476;SDS011;7840;42.702;23.296;2022-12-11T08:46:19;2.08;;;1.42;;
15476;SDS011;7840;42.702;23.296;2022-12-11T08:48:49;3.45;;;2.35;;
15476;SDS011;7840;42.702;23.296;2022-12-11T08:51:18;3.88;;;2.10;;
15476;SDS011;7840;42.702;23.296;2022-12-11T08:53:47;7.95;;;2.75;;
15476;SDS011;7840;42.702;23.296;2022-12-11T08:56:22;4.13;;;2.97;;
15476;SDS011;7840;42.702;23.296;2022-12-11T08:58:52;4.35;;;2.80;;
15476;SDS011;7840;42.702;23.296;2022-12-11T09:01:20;6.13;;;2.90;;
15476;SDS011;7840;42.702;23.296;2022-12-11T09:03:50;3.92;;;2.50;;
15476;SDS011;7840;42.702;23.296;2022-12-11T09:06:19;6.38;;;2.05;;
15476;SDS011;7840;42.702;23.296;2022-12-11T09:08:49;2.53;;;1.77;;
15476;SDS011;7840;42.702;23.296;2022-12-11T09:11:19;3.90;;;2.10;;
15476;SDS011;7840;42.702;23.296;2022-12-11T09:13:48;3.33;;;1.75;;
15476;SDS011;7840;42.702;23.296;2022-12-11T09:16:18;3.25;;;1.80;;
15476;SDS011;7840;42.702;23.296;2022-12-11T09:18:47;2.42;;;1.85;;
15476;SDS011;7840;42.702;23.296;2022-12-11T09:21:17;4.45;;;2.20;;
15476;SDS011;7840;42.702;23.296;2022-12-11T09:23:46;4.15;;;1.77;;
15476;SDS011;7840;42.702;23.296;2022-12-11T09:26:15;2.45;;;1.65;;
15476;SDS011;7840;42.702;23.296;2022-12-11T09:28:43;4.07;;;1.50;;
15476;SDS011;7840;42.702;23.296;2022-12-11T09:31:12;4.80;;;1.80;;
15476;SDS011;7840;42.702;23.296;2022-12-11T09:33:42;3.38;;;1.23;;
15476;SDS011;7840;42.702;23.296;2022-12-11T09:36:10;1.75;;;1.08;;
15476;SDS011;7840;42.702;23.296;2022-12-11T09:38:38;2.92;;;1.40;;
15476;SDS011;7840;42.702;23.296;2022-12-11T09:44:00;3.10;;;1.02;;
15476;SDS011;7840;42.702;23.296;2022-12-11T09:46:37;3.85;;;1.42;;
15476;SDS011;7840;42.702;23.296;2022-12-11T09:49:11;2.47;;;1.52;;
15476;SDS011;7840;42.702;23.296;2022-12-11T09:51:51;4.07;;;1.42;;
15476;SDS011;7840;42.702;23.296;2022-12-11T09:54:29;4.20;;;1.83;;
15476;SDS011;7840;42.702;23.296;2022-12-11T09:57:00;4.18;;;1.90;;
15476;SDS011;7840;42.702;23.296;2022-12-11T09:59:38;4.35;;;1.58;;
15476;SDS011;7840;42.702;23.296;2022-12-11T10:02:17;2.67;;;1.88;;
15476;SDS011;7840;42.702;23.296;2022-12-11T10:04:54;5.30;;;2.10;;
15476;SDS011;7840;42.702;23.296;2022-12-11T10:07:31;2.58;;;1.70;;
15476;SDS011;7840;42.702;23.296;2022-12-11T10:10:06;3.60;;;1.73;;
15476;SDS011;7840;42.702;23.296;2022-12-11T10:12:41;4.53;;;1.80;;
15476;SDS011;7840;42.702;23.296;2022-12-11T10:15:26;4.65;;;1.42;;
15476;SDS011;7840;42.702;23.296;2022-12-11T10:18:00;3.80;;;1.77;;
15476;SDS011;7840;42.702;23.296;2022-12-11T10:20:39;2.03;;;1.38;;
15476;SDS011;7840;42.702;23.296;2022-12-11T10:23:13;1.35;;;1.20;;
15476;SDS011;7840;42.702;23.296;2022-12-11T10:25:45;2.30;;;1.30;;
15476;SDS011;7840;42.702;23.296;2022-12-11T10:28:19;5.95;;;1.50;;
15476;SDS011;7840;42.702;23.296;2022-12-11T10:30:47;3.05;;;1.55;;
15476;SDS011;7840;42.702;23.296;2022-12-11T10:33:21;2.13;;;1.50;;
15476;SDS011;7840;42.702;23.296;2022-12-11T10:35:56;3.28;;;1.50;;
15476;SDS011;7840;42.702;23.296;2022-12-11T10:38:26;2.03;;;1.77;;
15476;SDS011;7840;42.702;23.296;2022-12-11T10:40:57;2.28;;;1.63;;
15476;SDS011;7840;42.702;23.296;2022-12-11T10:43:34;4.88;;;1.90;;
15476;SDS011;7840;42.702;23.296;2022-12-11T10:46:04;2.25;;;1.40;;
15476;SDS011;7840;42.702;23.296;2022-12-11T10:48:44;4.47;;;1.98;;
15476;SDS011;7840;42.702;23.296;2022-12-11T10:51:13;3.03;;;2.20;;
15476;SDS011;7840;42.702;23.296;2022-12-11T10:53:41;2.90;;;2.10;;
15476;SDS011;7840;42.702;23.296;2022-12-11T10:56:14;4.07;;;2.78;;
15476;SDS011;7840;42.702;23.296;2022-12-11T10:58:49;3.25;;;2.22;;
15476;SDS011;7840;42.702;23.296;2022-12-11T11:01:18;2.00;;;1.80;;
15476;SDS011;7840;42.702;23.296;2022-12-11T11:04:01;3.47;;;1.98;;
15476;SDS011;7840;42.702;23.296;2022-12-11T11:06:33;2.60;;;2.00;;
15476;SDS011;7840;42.702;23.296;2022-12-11T11:09:21;3.20;;;2.20;;
15476;SDS011;7840;42.702;23.296;2022-12-11T11:11:54;5.88;;;2.15;;
15476;SDS011;7840;42.702;23.296;2022-12-11T11:14:22;3.35;;;2.03;;
15476;SDS011;7840;42.702;23.296;2022-12-11T11:16:50;2.50;;;1.95;;
15476;SDS011;7840;42.702;23.296;2022-12-11T11:19:22;4.32;;;2.65;;
15476;SDS011;7840;42.702;23.296;2022-12-11T11:21:58;3.10;;;2.10;;
15476;SDS011;7840;42.702;23.296;2022-12-11T11:24:36;3.90;;;2.45;;
15476;SDS011;7840;42.702;23.296;2022-12-11T11:27:10;4.10;;;2.50;;
15476;SDS011;7840;42.702;23.296;2022-12-11T11:29:42;4.15;;;2.50;;
15476;SDS011;7840;42.702;23.296;2022-12-11T11:32:14;5.97;;;2.30;;
15476;SDS011;7840;42.702;23.296;2022-12-11T11:34:48;3.90;;;2.35;;
15476;SDS011;7840;42.702;23.296;2022-12-11T11:37:23;6.97;;;2.90;;
15476;SDS011;7840;42.702;23.296;2022-12-11T11:39:58;1.88;;;1.77;;
15476;SDS011;7840;42.702;23.296;2022-12-11T11:42:36;3.17;;;2.28;;
15476;SDS011;7840;42.702;23.296;2022-12-11T11:45:25;3.13;;;1.60;;
15476;SDS011;7840;42.702;23.296;2022-12-11T11:48:03;2.10;;;1.77;;
15476;SDS011;7840;42.702;23.296;2022-12-11T11:50:38;3.78;;;1.90;;
15476;SDS011;7840;42.702;23.296;2022-12-11T11:53:27;4.20;;;2.08;;
15476;SDS011;7840;42.702;23.296;2022-12-11T11:56:00;6.43;;;3.25;;
15476;SDS011;7840;42.702;23.296;2022-12-11T11:58:44;3.15;;;2.45;;
15476;SDS011;7840;42.702;23.296;2022-12-11T12:01:19;4.00;;;2.47;;
15476;SDS011;7840;42.702;23.296;2022-12-11T12:03:47;5.38;;;2.50;;
15476;SDS011;7840;42.702;23.296;2022-12-11T12:06:27;6.22;;;3.33;;
15476;SDS011;7840;42.702;23.296;2022-12-11T12:09:16;4.70;;;3.25;;
15476;SDS011;7840;42.702;23.296;2022-12-11T12:11:57;2.20;;;1.90;;
15476;SDS011;7840;42.702;23.296;2022-12-11T12:14:34;4.22;;;1.67;;
15476;SDS011;7840;42.702;23.296;2022-12-11T12:17:14;2.38;;;1.60;;
15476;SDS011;7840;42.702;23.296;2022-12-11T12:19:49;1.98;;;1.73;;
15476;SDS011;7840;42.702;23.296;2022-12-11T12:22:31;3.20;;;2.20;;
15476;SDS011;7840;42.702;23.296;2022-12-11T12:33:05;3.00;;;2.50;;
15476;SDS011;7840;42.702;23.296;2022-12-11T12:35:48;3.90;;;2.33;;
15476;SDS011;7840;42.702;23.296;2022-12-11T12:38:25;2.50;;;1.90;;
15476;SDS011;7840;42.702;23.296;2022-12-11T12:41:02;2.67;;;2.20;;
15476;SDS011;7840;42.702;23.296;2022-12-11T12:43:52;2.40;;;2.20;;
15476;SDS011;7840;42.702;23.296;2022-12-11T12:46:40;3.43;;;2.40;;
15476;SDS011;7840;42.702;23.296;2022-12-11T12:49:22;2.30;;;2.10;;
15476;SDS011;7840;42.702;23.296;2022-12-11T12:52:05;2.80;;;2.17;;
15476;SDS011;7840;42.702;23.296;2022-12-11T12:54:38;3.97;;;2.53;;
15476;SDS011;7840;42.702;23.296;2022-12-11T12:57:44;2.87;;;2.67;;
15476;SDS011;7840;42.702;23.296;2022-12-11T13:00:25;3.00;;;2.37;;
15476;SDS011;7840;42.702;23.296;2022-12-11T13:02:56;2.60;;;2.40;;
15476;SDS011;7840;42.702;23.296;2022-12-11T13:05:28;3.00;;;2.60;;
15476;SDS011;7840;42.702;23.296;2022-12-11T13:07:59;3.93;;;2.70;;
15476;SDS011;7840;42.702;23.296;2022-12-11T13:10:29;2.70;;;2.50;;
15476;SDS011;7840;42.702;23.296;2022-12-11T13:12:58;2.50;;;2.30;;
15476;SDS011;7840;42.702;23.296;2022-12-11T13:15:32;2.27;;;2.07;;
15476;SDS011;7840;42.702;23.296;2022-12-11T13:18:05;3.10;;;2.50;;
15476;SDS011;7840;42.702;23.296;2022-12-11T13:20:49;2.33;;;2.13;;
15476;SDS011;7840;42.702;23.296;2022-12-11T13:23:19;2.43;;;2.17;;
15476;SDS011;7840;42.702;23.296;2022-12-11T13:25:56;4.33;;;2.00;;
15476;SDS011;7840;42.702;23.296;2022-12-11T13:28:27;9.47;;;2.07;;
15476;SDS011;7840;42.702;23.296;2022-12-11T13:31:29;1.90;;;1.80;;
15476;SDS011;7840;42.702;23.296;2022-12-11T13:34:06;2.17;;;1.97;;
15476;SDS011;7840;42.702;23.296;2022-12-11T13:36:49;2.03;;;1.93;;
15476;SDS011;7840;42.702;23.296;2022-12-11T13:39:34;3.60;;;1.70;;
15476;SDS011;7840;42.702;23.296;2022-12-11T13:42:05;2.53;;;2.23;;
15476;SDS011;7840;42.702;23.296;2022-12-11T13:44:46;1.90;;;1.80;;
15476;SDS011;7840;42.702;23.296;2022-12-11T13:47:14;2.83;;;1.97;;
15476;SDS011;7840;42.702;23.296;2022-12-11T13:49:46;1.87;;;1.73;;
15476;SDS011;7840;42.702;23.296;2022-12-11T13:52:22;2.27;;;1.87;;
15476;SDS011;7840;42.702;23.296;2022-12-11T13:54:52;2.80;;;1.90;;
15476;SDS011;7840;42.702;23.296;2022-12-11T13:57:24;2.47;;;2.03;;
15476;SDS011;7840;42.702;23.296;2022-12-11T13:59:53;2.43;;;1.90;;
15476;SDS011;7840;42.702;23.296;2022-12-11T14:02:24;2.30;;;2.10;;
15476;SDS011;7840;42.702;23.296;2022-12-11T14:04:54;2.07;;;1.87;;
15476;SDS011;7840;42.702;23.296;2022-12-11T14:07:27;2.37;;;2.17;;
15476;SDS011;7840;42.702;23.296;2022-12-11T14:09:58;4.57;;;2.47;;
15476;SDS011;7840;42.702;23.296;2022-12-11T14:12:30;3.03;;;2.23;;
15476;SDS011;7840;42.702;23.296;2022-12-11T14:14:58;2.37;;;2.17;;
15476;SDS011;7840;42.702;23.296;2022-12-11T14:17:29;2.30;;;2.10;;
15476;SDS011;7840;42.702;23.296;2022-12-11T14:19:59;2.90;;;2.20;;
15476;SDS011;7840;42.702;23.296;2022-12-11T14:22:32;2.63;;;2.00;;
15476;SDS011;7840;42.702;23.296;2022-12-11T14:25:01;2.50;;;2.30;;
15476;SDS011;7840;42.702;23.296;2022-12-11T14:27:46;2.33;;;2.00;;
15476;SDS011;7840;42.702;23.296;2022-12-11T14:30:19;2.60;;;2.20;;
15476;SDS011;7840;42.702;23.296;2022-12-11T14:32:48;4.17;;;2.20;;
15476;SDS011;7840;42.702;23.296;2022-12-11T14:35:20;3.17;;;2.50;;
15476;SDS011;7840;42.702;23.296;2022-12-11T14:37:53;2.37;;;2.17;;
15476;SDS011;7840;42.702;23.296;2022-12-11T14:41:02;1.83;;;1.73;;
15476;SDS011;7840;42.702;23.296;2022-12-11T14:43:38;2.27;;;1.90;;
15476;SDS011;7840;42.702;23.296;2022-12-11T14:46:12;2.17;;;1.63;;
15476;SDS011;7840;42.702;23.296;2022-12-11T14:48:45;1.73;;;1.63;;
15476;SDS011;7840;42.702;23.296;2022-12-11T14:51:18;2.83;;;1.90;;
15476;SDS011;7840;42.702;23.296;2022-12-11T14:53:46;3.73;;;2.63;;
15476;SDS011;7840;42.702;23.296;2022-12-11T14:56:19;3.63;;;2.13;;
15476;SDS011;7840;42.702;23.296;2022-12-11T14:58:51;2.40;;;2.20;;
15476;SDS011;7840;42.702;23.296;2022-12-11T15:01:22;2.13;;;1.93;;
15476;SDS011;7840;42.702;23.296;2022-12-11T15:04:01;2.40;;;2.17;;
15476;SDS011;7840;42.702;23.296;2022-12-11T15:06:32;2.77;;;2.30;;
15476;SDS011;7840;42.702;23.296;2022-12-11T15:09:17;3.83;;;2.47;;
15476;SDS011;7840;42.702;23.296;2022-12-11T15:11:47;2.60;;;2.20;;
15476;SDS011;7840;42.702;23.296;2022-12-11T15:14:17;3.57;;;2.03;;
15476;SDS011;7840;42.702;23.296;2022-12-11T15:16:46;4.53;;;2.40;;
15476;SDS011;7840;42.702;23.296;2022-12-11T15:19:17;2.30;;;2.10;;
15476;SDS011;7840;42.702;23.296;2022-12-11T15:21:48;3.77;;;2.70;;
15476;SDS011;7840;42.702;23.296;2022-12-11T15:24:21;2.53;;;2.30;;
15476;SDS011;7840;42.702;23.296;2022-12-11T15:27:05;2.90;;;2.63;;
15476;SDS011;7840;42.702;23.296;2022-12-11T15:29:50;4.00;;;3.40;;